Time;durP1;ratioP1;P1;durP2;ratioP2;P2;SDS_P1;SDS_P2;PMS_P1;PMS_P2;Temp;Humidity;BMP_temperature;BMP_pressure;BME280_temperature;BME280_humidity;BME280_pressure;Samples;Min_cycle;Max_cycle;Signal;HPM_P1;HPM_P2
2022/05/27 00:00:48;;;;;;;6.32;1.63;;;19.00;52.00;;;;;;4941549;28;20055;-45
2022/05/27 00:03:17;;;;;;;7.93;1.25;;;19.00;52.00;;;;;;4944815;28;20055;-46
2022/05/27 00:05:44;;;;;;;2.95;1.38;;;19.00;52.00;;;;;;4943468;28;20055;-46
2022/05/27 00:08:12;;;;;;;3.85;1.27;;;19.00;52.00;;;;;;4940832;28;20055;-47
2022/05/27 00:10:40;;;;;;;7.70;1.38;;;19.00;52.00;;;;;;4944269;28;20063;-47
2022/05/27 00:13:07;;;;;;;3.28;1.20;;;19.00;52.00;;;;;;4943591;28;20055;-47
2022/05/27 00:15:36;;;;;;;6.28;1.50;;;19.00;52.00;;;;;;4941510;28;20419;-48
2022/05/27 00:18:05;;;;;;;4.97;1.60;;;18.90;51.90;;;;;;4939950;28;20491;-45
2022/05/27 00:20:32;;;;;;;10.68;2.22;;;18.90;52.00;;;;;;4939243;28;20078;-45
2022/05/27 00:23:01;;;;;;;5.88;1.60;;;18.90;52.10;;;;;;4942509;29;20062;-45
2022/05/27 00:25:28;;;;;;;2.95;1.45;;;18.90;52.30;;;;;;4942963;28;20055;-49
2022/05/27 00:27:57;;;;;;;4.90;1.60;;;18.80;52.20;;;;;;4940374;28;20066;-46
2022/05/27 00:30:25;;;;;;;8.52;1.92;;;18.90;52.20;;;;;;4941887;29;20063;-47
2022/05/27 00:32:52;;;;;;;5.85;1.60;;;18.80;52.20;;;;;;4943417;28;20420;-48
2022/05/27 00:35:22;;;;;;;5.43;1.38;;;18.80;52.20;;;;;;4942139;28;20600;-47
2022/05/27 00:37:49;;;;;;;5.13;1.58;;;18.80;52.40;;;;;;4939658;28;20122;-45
2022/05/27 00:40:18;;;;;;;4.10;1.15;;;18.70;52.40;;;;;;4942669;28;20047;-48
2022/05/27 00:42:47;;;;;;;5.55;1.60;;;18.70;52.40;;;;;;4939439;28;20066;-44
2022/05/27 00:45:18;;;;;;;3.63;1.27;;;18.70;52.40;;;;;;4940327;28;20062;-50
2022/05/27 00:47:49;;;;;;;3.80;1.23;;;18.70;52.50;;;;;;4938067;28;20055;-47
2022/05/27 00:50:19;;;;;;;3.55;1.20;;;18.70;52.40;;;;;;4942348;28;20411;-46
2022/05/27 00:52:49;;;;;;;2.97;1.35;;;18.70;52.50;;;;;;4942508;29;20055;-45
2022/05/27 00:55:19;;;;;;;6.28;1.27;;;18.70;52.40;;;;;;4941865;29;20059;-45
2022/05/27 00:57:49;;;;;;;2.90;1.10;;;18.70;52.40;;;;;;4942620;28;20507;-45
2022/05/27 01:00:20;;;;;;;5.28;1.23;;;18.70;52.40;;;;;;4945123;29;20055;-45
2022/05/27 01:02:48;;;;;;;2.28;1.00;;;18.70;52.40;;;;;;4943439;28;20062;-45
2022/05/27 01:05:18;;;;;;;4.10;1.27;;;18.70;52.50;;;;;;4943829;29;20051;-46
2022/05/27 01:07:47;;;;;;;3.15;1.33;;;18.70;52.50;;;;;;4943711;28;20055;-47
2022/05/27 01:10:17;;;;;;;3.83;1.15;;;18.70;52.60;;;;;;4945295;28;20085;-45
2022/05/27 01:13:08;;;;;;;3.53;1.40;;;18.70;52.50;;;;;;4944200;28;20063;-46
2022/05/27 01:15:43;;;;;;;6.15;1.27;;;18.60;52.40;;;;;;4946053;28;20062;-46
2022/05/27 01:18:25;;;;;;;3.60;1.52;;;18.60;52.40;;;;;;4945147;28;20496;-45
2022/05/27 01:20:58;;;;;;;2.53;1.20;;;18.60;52.50;;;;;;4944652;28;20057;-53
2022/05/27 01:24:06;;;;;;;7.68;1.40;;;18.70;52.40;;;;;;4945716;28;20061;-47
2022/05/27 01:26:53;;;;;;;3.50;1.33;;;18.60;52.40;;;;;;4946194;29;20059;-46
2022/05/27 01:29:59;;;;;;;3.00;0.90;;;18.60;52.40;;;;;;4944382;28;20063;-45
2022/05/27 01:32:35;;;;;;;6.43;1.38;;;18.60;52.40;;;;;;4944021;28;20062;-45
2022/05/27 01:35:09;;;;;;;5.78;1.30;;;18.70;52.40;;;;;;4945137;28;20059;-45
2022/05/27 01:37:46;;;;;;;4.67;1.00;;;18.70;52.40;;;;;;4943476;28;20427;-46
2022/05/27 01:40:26;;;;;;;3.13;1.27;;;18.70;52.40;;;;;;4941499;28;20767;-45
2022/05/27 01:42:59;;;;;;;5.28;1.48;;;18.60;52.40;;;;;;4944494;28;20051;-46
2022/05/27 01:45:35;;;;;;;3.35;1.10;;;18.60;52.40;;;;;;4945294;28;20526;-47
2022/05/27 01:48:11;;;;;;;2.25;1.20;;;18.70;52.40;;;;;;4943591;28;20058;-47
2022/05/27 01:50:45;;;;;;;1.67;0.82;;;18.60;52.40;;;;;;4944975;28;20051;-48
2022/05/27 01:56:40;;;;;;;12.20;1.13;;;18.70;52.30;;;;;;4944577;28;20168;-45
2022/05/27 01:59:12;;;;;;;1.77;0.82;;;18.70;52.20;;;;;;4943706;28;20412;-51
2022/05/27 02:01:44;;;;;;;4.22;1.00;;;18.70;52.10;;;;;;4943707;28;20055;-46
2022/05/27 02:04:20;;;;;;;3.55;0.80;;;18.70;52.10;;;;;;4943676;29;20059;-47
2022/05/27 02:06:52;;;;;;;3.97;1.08;;;18.70;52.10;;;;;;4945086;28;20051;-45
2022/05/27 02:09:23;;;;;;;3.33;1.30;;;18.70;52.10;;;;;;4944682;28;20055;-48
2022/05/27 02:11:56;;;;;;;1.45;1.10;;;18.70;52.00;;;;;;4946130;28;20054;-46
2022/05/27 02:14:29;;;;;;;1.92;0.95;;;18.60;52.10;;;;;;4944847;29;20075;-46
2022/05/27 02:17:02;;;;;;;2.05;1.27;;;18.60;52.10;;;;;;4943661;28;20061;-46
2022/05/27 02:19:34;;;;;;;4.38;1.15;;;18.60;52.10;;;;;;4941670;28;20493;-47
2022/05/27 02:22:07;;;;;;;3.67;1.38;;;18.60;52.20;;;;;;4944241;28;20059;-50
2022/05/27 02:24:40;;;;;;;2.90;0.90;;;18.60;52.20;;;;;;4944109;28;20055;-49
2022/05/27 02:27:13;;;;;;;4.32;1.30;;;18.50;52.00;;;;;;4942205;28;20066;-45
2022/05/27 02:29:44;;;;;;;3.13;1.30;;;18.50;52.10;;;;;;4944203;28;20055;-45
2022/05/27 02:32:15;;;;;;;3.95;1.42;;;18.50;52.10;;;;;;4944623;28;20510;-46
2022/05/27 02:35:07;;;;;;;4.13;1.60;;;18.50;52.00;;;;;;4944627;28;20534;-45
2022/05/27 02:37:38;;;;;;;3.05;1.50;;;18.50;52.10;;;;;;4942130;28;20059;-45
2022/05/27 02:40:10;;;;;;;4.40;1.30;;;18.50;52.20;;;;;;4943377;28;20136;-48
2022/05/27 02:42:48;;;;;;;3.63;1.77;;;18.40;52.20;;;;;;4943672;28;20079;-47
2022/05/27 02:45:28;;;;;;;3.80;1.27;;;18.40;52.40;;;;;;4943750;28;20062;-46
2022/05/27 02:48:06;;;;;;;4.38;1.30;;;18.40;52.50;;;;;;4941709;28;20452;-45
2022/05/27 02:50:41;;;;;;;3.15;1.30;;;18.40;52.50;;;;;;4943537;28;20407;-47
2022/05/27 02:53:20;;;;;;;2.53;1.20;;;18.40;52.60;;;;;;4943295;28;20071;-47
2022/05/27 02:56:01;;;;;;;2.28;1.50;;;18.40;52.80;;;;;;4939984;28;20058;-49
2022/05/27 02:58:30;;;;;;;4.18;1.30;;;18.40;52.60;;;;;;4939868;28;20407;-46
2022/05/27 03:00:58;;;;;;;2.38;0.95;;;18.40;52.60;;;;;;4941098;28;20393;-52
2022/05/27 03:03:27;;;;;;;5.70;1.92;;;18.40;52.50;;;;;;4940451;29;20144;-48
2022/05/27 03:06:10;;;;;;;5.32;1.52;;;18.40;52.50;;;;;;4942058;28;20055;-45
2022/05/27 03:08:44;;;;;;;3.38;1.52;;;18.40;52.50;;;;;;4938676;28;20566;-48
2022/05/27 03:11:15;;;;;;;3.40;1.30;;;18.40;52.50;;;;;;4943464;28;20062;-46
2022/05/27 03:14:16;;;;;;;5.55;1.60;;;18.40;52.50;;;;;;4940389;28;20062;-45
2022/05/27 03:16:58;;;;;;;3.40;1.27;;;18.40;52.60;;;;;;4931159;28;20059;-47
2022/05/27 03:19:53;;;;;;;4.25;1.40;;;18.30;52.50;;;;;;4939761;28;20062;-47
2022/05/27 03:22:36;;;;;;;2.67;1.20;;;18.30;52.50;;;;;;4939649;28;20047;-46
2022/05/27 03:25:17;;;;;;;3.47;1.95;;;18.30;52.60;;;;;;4940889;28;20062;-47
2022/05/27 03:27:52;;;;;;;3.78;1.30;;;18.30;52.70;;;;;;4937132;28;20039;-45
2022/05/27 03:30:22;;;;;;;4.80;1.50;;;18.30;52.70;;;;;;4942044;28;20059;-45
2022/05/27 03:32:55;;;;;;;5.13;1.40;;;18.20;52.70;;;;;;4944071;28;20055;-45
2022/05/27 03:35:29;;;;;;;4.47;1.67;;;18.20;52.90;;;;;;4941342;28;20059;-45
2022/05/27 03:38:05;;;;;;;6.25;1.05;;;18.20;53.00;;;;;;4943876;28;20495;-46
2022/05/27 03:40:40;;;;;;;4.72;1.50;;;18.20;53.10;;;;;;4943361;28;20059;-52
2022/05/27 03:43:08;;;;;;;3.25;1.20;;;18.20;53.20;;;;;;4944698;28;20059;-45
2022/05/27 03:45:48;;;;;;;3.33;1.50;;;18.10;53.20;;;;;;4943537;28;20055;-46
2022/05/27 03:48:16;;;;;;;4.60;1.25;;;18.10;53.40;;;;;;4944046;28;20450;-44
2022/05/27 03:50:45;;;;;;;6.95;1.67;;;18.10;53.30;;;;;;4941936;28;20058;-52
2022/05/27 03:53:14;;;;;;;4.35;1.30;;;18.10;53.40;;;;;;4944066;28;20534;-48
2022/05/27 03:55:44;;;;;;;3.35;1.30;;;18.10;53.70;;;;;;4943529;28;20058;-45
2022/05/27 03:58:13;;;;;;;2.53;1.15;;;18.00;53.90;;;;;;4942798;28;20058;-49
2022/05/27 04:00:41;;;;;;;5.60;1.75;;;18.00;54.40;;;;;;4942056;28;20059;-47
2022/05/27 04:03:10;;;;;;;4.07;1.35;;;17.90;54.70;;;;;;4943238;28;20054;-47
2022/05/27 04:05:38;;;;;;;2.75;1.23;;;17.80;54.90;;;;;;4942836;28;20058;-45
2022/05/27 04:08:06;;;;;;;4.55;1.23;;;17.80;55.10;;;;;;4943816;28;20050;-45
2022/05/27 04:10:35;;;;;;;2.70;1.15;;;17.80;55.20;;;;;;4943414;28;20055;-45
2022/05/27 04:13:02;;;;;;;2.72;1.23;;;17.80;55.40;;;;;;4943337;28;20043;-44
2022/05/27 04:15:30;;;;;;;2.75;1.20;;;17.80;55.50;;;;;;4942053;28;20047;-50
2022/05/27 04:17:57;;;;;;;3.00;0.90;;;17.80;55.50;;;;;;4932671;28;20074;-45
2022/05/27 04:20:25;;;;;;;3.17;1.20;;;17.80;55.60;;;;;;4940701;28;20531;-45
2022/05/27 04:22:55;;;;;;;3.88;1.02;;;17.80;55.70;;;;;;4944406;28;20055;-45
2022/05/27 04:25:23;;;;;;;4.35;1.05;;;17.70;55.80;;;;;;4942938;28;21957;-46
2022/05/27 04:27:52;;;;;;;3.80;1.40;;;17.80;55.80;;;;;;4941129;28;20066;-51
2022/05/27 04:30:20;;;;;;;4.40;1.10;;;17.70;56.00;;;;;;4941151;28;20488;-46
2022/05/27 04:32:47;;;;;;;1.92;1.00;;;17.70;56.00;;;;;;4945472;28;20051;-44
2022/05/27 04:35:15;;;;;;;4.38;1.73;;;17.70;56.00;;;;;;4945181;28;20066;-50
2022/05/27 04:37:42;;;;;;;3.95;1.30;;;17.70;56.10;;;;;;4946917;28;20051;-45
2022/05/27 04:40:10;;;;;;;2.85;1.20;;;17.70;56.30;;;;;;4946610;28;20058;-47
2022/05/27 04:42:38;;;;;;;3.63;1.20;;;17.70;56.40;;;;;;4946333;28;20051;-49
2022/05/27 04:45:08;;;;;;;5.63;0.98;;;17.70;56.60;;;;;;4945453;28;20066;-49
2022/05/27 04:47:38;;;;;;;2.45;1.05;;;17.70;56.90;;;;;;4947523;28;20058;-45
2022/05/27 04:50:08;;;;;;;2.45;0.90;;;17.60;56.80;;;;;;4944274;28;20059;-45
2022/05/27 04:52:36;;;;;;;4.55;0.90;;;17.60;56.80;;;;;;4946509;28;20050;-44
2022/05/27 04:55:08;;;;;;;4.50;1.00;;;17.60;56.90;;;;;;4946879;28;20059;-46
2022/05/27 04:57:37;;;;;;;1.45;0.63;;;17.60;57.00;;;;;;4942238;28;20051;-46
2022/05/27 05:00:10;;;;;;;2.80;0.60;;;17.60;57.00;;;;;;4945251;28;20062;-48
2022/05/27 05:02:38;;;;;;;1.77;0.60;;;17.50;56.90;;;;;;4944412;28;20062;-46
2022/05/27 05:05:06;;;;;;;3.97;0.77;;;17.50;56.80;;;;;;4941211;28;20062;-45
2022/05/27 05:07:36;;;;;;;1.73;0.63;;;17.50;57.00;;;;;;4942799;28;20059;-44
2022/05/27 05:10:05;;;;;;;1.88;0.50;;;17.60;57.00;;;;;;4942741;28;20051;-45
2022/05/27 05:12:33;;;;;;;3.17;1.55;;;17.50;56.90;;;;;;4946319;28;20058;-45
2022/05/27 05:15:00;;;;;;;3.00;0.60;;;17.60;57.00;;;;;;4947076;28;20420;-46
2022/05/27 05:17:29;;;;;;;1.83;0.75;;;17.50;57.00;;;;;;4942995;28;20066;-46
2022/05/27 05:19:57;;;;;;;2.95;0.55;;;17.50;57.20;;;;;;4942877;28;20059;-49
2022/05/27 05:22:25;;;;;;;3.25;0.50;;;17.50;57.40;;;;;;4946005;28;20059;-47
2022/05/27 05:24:54;;;;;;;1.42;0.50;;;17.40;57.50;;;;;;4945342;28;20729;-46
2022/05/27 05:27:22;;;;;;;2.38;0.50;;;17.40;57.50;;;;;;4942789;28;20047;-50
2022/05/27 05:29:49;;;;;;;3.60;0.52;;;17.40;57.80;;;;;;4943790;28;20055;-46
2022/05/27 05:32:17;;;;;;;0.45;0.40;;;17.40;58.10;;;;;;4945845;28;20479;-46
2022/05/27 05:34:45;;;;;;;2.17;0.50;;;17.40;58.20;;;;;;4944821;28;20059;-45
2022/05/27 05:37:13;;;;;;;0.52;0.30;;;17.40;58.40;;;;;;4939922;28;20715;-47
2022/05/27 05:39:40;;;;;;;1.15;0.55;;;17.30;58.50;;;;;;4942420;28;20499;-47
2022/05/27 05:42:09;;;;;;;1.20;0.40;;;17.30;58.60;;;;;;4939291;28;20070;-49
2022/05/27 05:44:37;;;;;;;2.17;0.50;;;17.40;58.90;;;;;;4944891;28;20063;-45
2022/05/27 05:47:06;;;;;;;1.77;0.90;;;17.30;58.90;;;;;;4945430;28;20074;-45
2022/05/27 05:49:34;;;;;;;0.88;0.80;;;17.30;59.10;;;;;;4945320;29;20059;-45
2022/05/27 05:52:04;;;;;;;1.27;0.70;;;17.30;59.30;;;;;;4945318;28;20074;-45
2022/05/27 05:54:32;;;;;;;1.75;0.50;;;17.30;59.60;;;;;;4944166;28;20495;-44
2022/05/27 05:57:00;;;;;;;1.67;0.88;;;17.30;59.70;;;;;;4944951;28;20055;-45
2022/05/27 05:59:31;;;;;;;2.92;0.77;;;17.30;59.70;;;;;;4936189;28;20063;-46
2022/05/27 06:01:59;;;;;;;1.60;0.70;;;17.30;59.80;;;;;;4944011;28;20408;-52
2022/05/27 06:04:28;;;;;;;1.90;1.00;;;17.30;60.00;;;;;;4943141;28;20526;-44
2022/05/27 06:06:56;;;;;;;1.02;0.73;;;17.30;60.00;;;;;;4940760;28;20066;-45
2022/05/27 06:09:26;;;;;;;1.38;0.90;;;17.30;59.90;;;;;;4931982;28;20051;-46
2022/05/27 06:11:54;;;;;;;1.63;0.80;;;17.30;60.00;;;;;;4936096;28;20385;-46
2022/05/27 06:14:22;;;;;;;0.90;0.80;;;17.30;60.10;;;;;;4936854;28;20055;-45
2022/05/27 06:16:50;;;;;;;1.65;0.90;;;17.30;60.20;;;;;;4931781;28;20055;-48
2022/05/27 06:19:18;;;;;;;2.33;0.90;;;17.30;60.30;;;;;;4936949;28;20518;-45
2022/05/27 06:21:45;;;;;;;2.00;1.10;;;17.40;60.50;;;;;;4933269;28;20071;-47
2022/05/27 06:24:13;;;;;;;2.53;1.10;;;17.40;60.70;;;;;;4935880;28;20051;-48
2022/05/27 06:26:42;;;;;;;0.95;0.82;;;17.40;60.80;;;;;;4941645;28;20062;-45
2022/05/27 06:34:39;;;;;;;3.22;1.20;;;17.40;60.90;;;;;;4949241;28;20276;-45
2022/05/27 06:37:10;;;;;;;2.50;1.60;;;17.40;61.10;;;;;;4928558;28;20067;-48
2022/05/27 06:39:38;;;;;;;2.67;1.23;;;17.40;61.40;;;;;;4938967;28;20063;-48
2022/05/27 06:42:09;;;;;;;2.17;1.20;;;17.40;61.60;;;;;;4931514;28;20051;-45
2022/05/27 06:44:37;;;;;;;2.33;1.02;;;17.40;61.80;;;;;;4945085;29;20063;-44
2022/05/27 06:47:06;;;;;;;1.05;1.00;;;17.40;61.90;;;;;;4945036;28;20058;-46
2022/05/27 06:49:34;;;;;;;3.17;0.95;;;17.40;62.10;;;;;;4943443;28;20058;-46
2022/05/27 06:52:01;;;;;;;1.35;1.00;;;17.40;62.10;;;;;;4945368;28;20063;-44
2022/05/27 06:54:29;;;;;;;4.55;1.40;;;17.40;62.30;;;;;;4944351;28;20051;-46
2022/05/27 06:56:56;;;;;;;1.92;0.98;;;17.40;62.40;;;;;;4944379;28;20504;-48
2022/05/27 06:59:25;;;;;;;2.45;0.80;;;17.40;62.50;;;;;;4943637;28;20435;-45
2022/05/27 07:01:54;;;;;;;3.15;0.98;;;17.30;62.60;;;;;;4943386;28;20058;-47
2022/05/27 07:04:21;;;;;;;1.95;0.98;;;17.40;62.80;;;;;;4940572;28;20051;-47
2022/05/27 07:06:49;;;;;;;1.88;0.90;;;17.40;63.10;;;;;;4943720;28;20530;-46
2022/05/27 07:09:19;;;;;;;1.40;0.88;;;17.40;63.10;;;;;;4932817;28;20055;-45
2022/05/27 07:11:48;;;;;;;1.90;0.95;;;17.40;63.20;;;;;;4935419;28;20071;-46
2022/05/27 07:14:17;;;;;;;2.28;0.63;;;17.40;63.40;;;;;;4943538;28;20051;-44
2022/05/27 07:16:48;;;;;;;6.93;1.42;;;17.50;63.40;;;;;;4945556;28;20055;-44
2022/05/27 07:19:19;;;;;;;1.35;0.75;;;17.50;63.60;;;;;;4940598;28;20114;-46
2022/05/27 07:21:48;;;;;;;1.02;0.65;;;17.50;63.30;;;;;;4941166;28;20062;-45
2022/05/27 07:24:18;;;;;;;1.33;0.68;;;17.50;63.40;;;;;;4945082;28;20132;-45
2022/05/27 07:26:46;;;;;;;1.13;0.60;;;17.50;63.40;;;;;;4943980;28;20059;-45
2022/05/27 07:29:14;;;;;;;1.05;0.40;;;17.60;63.50;;;;;;4942745;28;20059;-46
2022/05/27 07:31:43;;;;;;;1.75;0.52;;;17.60;63.50;;;;;;4944537;29;20435;-44
2022/05/27 07:34:13;;;;;;;0.80;0.47;;;17.60;63.50;;;;;;4940695;28;20058;-49
2022/05/27 07:36:40;;;;;;;2.05;0.30;;;17.60;63.60;;;;;;4943314;28;20051;-46
2022/05/27 07:39:08;;;;;;;0.32;0.30;;;17.70;63.50;;;;;;4938243;28;20058;-49
2022/05/27 07:41:37;;;;;;;3.45;0.70;;;17.70;63.80;;;;;;4941649;28;20047;-47
2022/05/27 07:44:05;;;;;;;0.73;0.50;;;17.60;62.90;;;;;;4944384;28;20067;-48
2022/05/27 07:46:34;;;;;;;3.50;1.00;;;17.40;62.20;;;;;;4943545;28;20055;-48
2022/05/27 07:49:04;;;;;;;4.75;1.10;;;17.30;62.10;;;;;;4942015;28;20074;-49
2022/05/27 07:51:33;;;;;;;3.17;1.00;;;17.00;62.00;;;;;;4943550;28;20066;-45
2022/05/27 07:54:00;;;;;;;3.63;1.40;;;16.70;63.00;;;;;;4939435;28;20059;-51
2022/05/27 07:56:28;;;;;;;2.47;1.13;;;16.50;64.60;;;;;;4944651;28;20062;-45
2022/05/27 07:58:55;;;;;;;7.65;1.40;;;16.30;65.40;;;;;;4943046;28;20051;-49
2022/05/27 08:01:23;;;;;;;4.40;1.20;;;16.10;66.10;;;;;;4942852;28;20059;-47
2022/05/27 08:03:50;;;;;;;4.18;1.60;;;15.90;67.00;;;;;;4943415;28;20066;-46
2022/05/27 08:06:17;;;;;;;3.35;1.40;;;15.80;67.90;;;;;;4942556;28;20582;-45
2022/05/27 08:08:47;;;;;;;3.17;1.38;;;15.60;68.90;;;;;;4939085;28;20063;-48
2022/05/27 08:11:15;;;;;;;6.78;1.45;;;15.50;69.80;;;;;;4947363;28;20067;-48
2022/05/27 08:13:42;;;;;;;3.75;1.30;;;15.40;70.30;;;;;;4948192;28;20058;-46
2022/05/27 08:16:10;;;;;;;2.05;1.42;;;15.40;71.00;;;;;;4945700;28;20143;-46
2022/05/27 08:18:38;;;;;;;1.77;1.20;;;15.30;71.30;;;;;;4946616;28;20487;-48
2022/05/27 08:21:06;;;;;;;3.13;1.45;;;15.20;71.50;;;;;;4947297;28;20059;-46
2022/05/27 08:23:33;;;;;;;4.30;1.63;;;15.20;72.10;;;;;;4948607;28;20059;-47
2022/05/27 08:26:03;;;;;;;2.97;1.27;;;15.10;72.30;;;;;;4947535;28;20066;-46
2022/05/27 08:28:31;;;;;;;4.32;1.42;;;15.10;72.80;;;;;;4944058;28;20097;-46
2022/05/27 08:30:59;;;;;;;2.33;1.23;;;15.10;73.10;;;;;;4945297;28;20140;-51
2022/05/27 08:38:00;;;;;;;4.13;1.23;;;15.10;73.20;;;;;;4947320;28;20051;-49
2022/05/27 08:39:08;;;;;;;8.23;1.58;;;15.00;73.30;;;;;;4951143;28;20066;-48
2022/05/27 08:41:47;;;;;;;2.95;1.23;;;15.00;73.50;;;;;;4947189;28;20055;-48
2022/05/27 08:44:35;;;;;;;4.15;1.50;;;15.10;74.00;;;;;;4945907;28;20055;-48
2022/05/27 08:47:12;;;;;;;4.20;1.45;;;15.10;74.00;;;;;;4944317;28;20427;-54
2022/05/27 08:49:45;;;;;;;4.03;1.33;;;15.00;73.90;;;;;;4946363;28;20081;-47
2022/05/27 08:52:18;;;;;;;8.75;1.65;;;15.00;73.70;;;;;;4944932;28;20059;-49
2022/05/27 08:54:50;;;;;;;2.97;1.38;;;15.10;73.90;;;;;;4943760;28;20047;-49
2022/05/27 09:00:14;;;;;;;4.38;1.98;;;15.10;74.10;;;;;;4949144;28;20062;-54
2022/05/27 09:02:48;;;;;;;7.30;1.80;;;15.10;74.40;;;;;;4945230;28;20412;-50
2022/05/27 09:05:19;;;;;;;5.13;1.85;;;15.10;74.70;;;;;;4945212;28;20051;-51
2022/05/27 09:07:52;;;;;;;2.60;1.55;;;15.10;74.60;;;;;;4938781;28;20050;-53
2022/05/27 09:10:22;;;;;;;3.22;1.35;;;15.20;74.80;;;;;;4931958;28;20059;-51
2022/05/27 09:13:04;;;;;;;3.58;1.77;;;15.20;74.80;;;;;;4946276;28;20144;-50
2022/05/27 09:15:40;;;;;;;4.40;1.70;;;15.20;74.80;;;;;;4946925;29;20051;-49
2022/05/27 09:18:20;;;;;;;3.92;1.63;;;15.30;74.50;;;;;;4947010;28;20392;-49
2022/05/27 09:20:54;;;;;;;4.53;1.77;;;15.40;74.80;;;;;;4942949;28;20055;-47
2022/05/27 09:23:58;;;;;;;4.80;2.00;;;15.50;74.60;;;;;;4937938;28;20070;-49
2022/05/27 09:26:30;;;;;;;2.78;1.98;;;15.60;74.90;;;;;;4944022;28;20066;-51
2022/05/27 09:29:07;;;;;;;10.13;2.90;;;15.70;74.20;;;;;;4941681;28;20063;-51
2022/05/27 09:31:38;;;;;;;3.83;1.77;;;15.70;74.00;;;;;;4942419;28;20085;-47
2022/05/27 09:34:11;;;;;;;2.92;2.00;;;15.80;74.00;;;;;;4923971;28;20058;-51
2022/05/27 09:36:42;;;;;;;3.72;2.45;;;15.90;74.50;;;;;;4934412;28;20055;-52
2022/05/27 09:39:13;;;;;;;4.80;2.00;;;15.90;74.90;;;;;;4940491;28;20058;-47
2022/05/27 09:41:46;;;;;;;5.05;2.67;;;16.00;74.80;;;;;;4944630;28;20051;-47
2022/05/27 09:44:22;;;;;;;5.45;2.72;;;16.10;74.10;;;;;;4946251;28;20308;-48
2022/05/27 09:46:51;;;;;;;8.18;3.45;;;16.20;74.20;;;;;;4945957;29;20063;-49
2022/05/27 09:49:18;;;;;;;7.03;3.28;;;16.30;73.90;;;;;;4942490;28;20063;-51
2022/05/27 09:51:46;;;;;;;4.85;3.20;;;16.40;73.40;;;;;;4945823;29;20423;-48
2022/05/27 09:54:25;;;;;;;5.07;3.67;;;16.50;73.70;;;;;;4945387;28;20055;-50
2022/05/27 09:56:58;;;;;;;7.35;4.50;;;16.60;74.40;;;;;;4945245;28;20058;-46
2022/05/27 09:59:34;;;;;;;9.80;4.97;;;16.70;74.00;;;;;;4943965;28;20067;-48
2022/05/27 10:02:16;;;;;;;9.95;4.85;;;16.80;73.00;;;;;;4944163;29;20058;-51
2022/05/27 10:04:52;;;;;;;6.28;4.40;;;16.90;72.10;;;;;;4945045;28;20078;-52
2022/05/27 10:07:28;;;;;;;9.98;5.35;;;17.00;72.50;;;;;;4944465;28;20051;-48
2022/05/27 10:09:56;;;;;;;11.23;6.43;;;17.10;71.90;;;;;;4946261;28;20059;-48
2022/05/27 10:12:33;;;;;;;8.70;5.22;;;17.20;71.60;;;;;;4944756;28;20058;-46
2022/05/27 10:15:02;;;;;;;10.05;6.25;;;17.30;71.40;;;;;;4944302;28;20062;-51
2022/05/27 10:17:35;;;;;;;8.63;5.97;;;17.30;70.10;;;;;;4943854;28;20051;-51
2022/05/27 10:20:19;;;;;;;12.18;6.32;;;17.40;69.80;;;;;;4943065;28;20086;-49
2022/05/27 10:23:00;;;;;;;10.27;6.50;;;17.40;70.60;;;;;;4945673;29;20082;-48
2022/05/27 10:25:34;;;;;;;15.63;7.35;;;17.50;70.80;;;;;;4945061;28;20051;-48
2022/05/27 10:28:02;;;;;;;12.18;6.93;;;17.60;70.10;;;;;;4941364;28;20170;-50
2022/05/27 10:30:32;;;;;;;12.82;8.60;;;17.60;69.70;;;;;;4944022;28;20066;-47
2022/05/27 10:33:17;;;;;;;11.52;9.07;;;17.70;68.90;;;;;;4944646;28;20062;-50
2022/05/27 10:35:44;;;;;;;;;;;17.80;69.80;;;;;;4943830;28;20055;-47
2022/05/27 10:38:41;;;;;;;14.13;8.18;;;17.90;69.10;;;;;;4941428;28;19927;-47
2022/05/27 10:41:16;;;;;;;15.45;8.77;;;17.90;68.60;;;;;;4945072;28;20055;-46
2022/05/27 10:43:55;;;;;;;11.52;7.97;;;18.00;68.40;;;;;;4944857;28;20074;-46
2022/05/27 10:46:30;;;;;;;13.85;8.48;;;18.10;68.80;;;;;;4945237;28;20054;-47
2022/05/27 10:49:19;;;;;;;9.60;7.22;;;18.10;68.20;;;;;;4943256;28;20062;-50
2022/05/27 10:52:02;;;;;;;12.63;8.18;;;18.20;68.60;;;;;;4944324;28;20114;-47
2022/05/27 10:54:45;;;;;;;15.13;9.25;;;18.30;68.00;;;;;;4945265;28;20055;-49
2022/05/27 11:03:34;;;;;;;11.15;7.50;;;18.60;67.50;;;;;;4943954;28;20054;-48
2022/05/27 11:06:28;;;;;;;12.82;7.45;;;18.70;66.00;;;;;;4942508;28;20062;-46
2022/05/27 11:09:18;;;;;;;12.65;6.70;;;18.80;67.40;;;;;;4938747;28;20079;-48
2022/05/27 11:11:55;;;;;;;11.88;6.30;;;18.90;66.60;;;;;;4938829;28;20058;-47
2022/05/27 11:17:29;;;;;;;9.85;5.63;;;19.20;65.20;;;;;;4932400;28;20062;-52
2022/05/27 11:20:13;;;;;;;12.20;5.15;;;19.40;65.10;;;;;;4936184;28;20500;-49
2022/05/27 11:22:53;;;;;;;8.93;5.35;;;19.60;65.30;;;;;;4930011;28;20055;-47
2022/05/27 11:25:30;;;;;;;10.82;5.72;;;19.70;62.10;;;;;;4934810;28;20059;-49
2022/05/27 11:28:15;;;;;;;8.95;5.07;;;19.70;60.60;;;;;;4939334;28;20070;-54
2022/05/27 11:30:53;;;;;;;9.40;5.00;;;19.80;61.20;;;;;;4932115;28;20059;-48
2022/05/27 11:33:32;;;;;;;8.63;5.22;;;19.80;60.60;;;;;;4945115;28;20051;-49
2022/05/27 11:36:19;;;;;;;8.63;5.22;;;19.90;60.10;;;;;;4932460;28;20065;-46
2022/05/27 11:39:22;;;;;;;9.07;5.32;;;19.90;59.50;;;;;;4925794;28;20059;-51
2022/05/27 11:41:59;;;;;;;7.82;4.43;;;19.90;58.40;;;;;;4925777;28;20047;-51
2022/05/27 11:44:34;;;;;;;11.70;5.70;;;19.90;59.00;;;;;;4943965;28;20085;-47
2022/05/27 11:47:23;;;;;;;9.80;5.45;;;20.00;59.10;;;;;;4943627;28;20055;-46
2022/05/27 11:50:20;;;;;;;8.57;5.25;;;20.00;59.10;;;;;;4942726;28;20530;-47
2022/05/27 11:53:06;;;;;;;9.18;5.18;;;20.00;59.50;;;;;;4940230;28;20408;-48
2022/05/27 11:55:50;;;;;;;11.63;4.75;;;20.10;58.30;;;;;;4944764;28;20051;-46
2022/05/27 11:58:21;;;;;;;10.65;4.60;;;20.10;57.70;;;;;;4939182;28;20400;-46
2022/05/27 12:00:53;;;;;;;8.77;4.03;;;20.10;57.90;;;;;;4942718;28;20073;-49
2022/05/27 12:03:29;;;;;;;10.23;4.95;;;20.10;57.60;;;;;;4944403;28;20059;-47
2022/05/27 12:06:03;;;;;;;8.10;4.90;;;20.10;57.00;;;;;;4942760;29;20059;-46
2022/05/27 12:08:35;;;;;;;;;;;20.10;57.10;;;;;;4940531;28;20055;-47
2022/05/27 12:11:10;;;;;;;7.63;4.10;;;20.20;57.30;;;;;;4942164;28;19929;-47
2022/05/27 12:13:41;;;;;;;6.78;3.92;;;20.10;57.50;;;;;;4944083;29;20055;-47
2022/05/27 12:16:13;;;;;;;7.70;5.20;;;20.10;57.60;;;;;;4944757;28;20043;-46
2022/05/27 12:18:45;;;;;;;11.02;4.07;;;20.00;57.40;;;;;;4942763;29;20059;-49
2022/05/27 12:21:16;;;;;;;9.93;5.35;;;20.00;57.00;;;;;;4943175;28;20082;-50
2022/05/27 12:23:53;;;;;;;11.07;4.03;;;20.00;55.70;;;;;;4943636;28;20527;-47
2022/05/27 12:26:27;;;;;;;9.63;4.65;;;20.00;54.80;;;;;;4944162;28;20895;-50
2022/05/27 12:28:57;;;;;;;13.02;4.72;;;20.10;56.90;;;;;;4942190;28;20059;-48
2022/05/27 12:31:27;;;;;;;7.65;4.22;;;20.10;55.20;;;;;;4942232;28;20058;-47
2022/05/27 12:33:54;;;;;;;10.45;4.97;;;20.10;55.50;;;;;;4941332;28;20078;-49
2022/05/27 12:36:26;;;;;;;10.18;4.45;;;20.20;56.50;;;;;;4942374;28;20060;-49
2022/05/27 12:38:57;;;;;;;10.07;3.80;;;20.30;55.20;;;;;;4942015;28;20559;-49
2022/05/27 12:41:36;;;;;;;10.52;3.65;;;20.30;51.10;;;;;;4941301;28;20059;-46
2022/05/27 12:44:25;;;;;;;7.13;3.45;;;20.30;53.30;;;;;;4943802;28;20067;-46
2022/05/27 12:46:57;;;;;;;9.25;3.53;;;20.40;52.80;;;;;;4943482;28;20078;-50
2022/05/27 12:49:28;;;;;;;7.35;3.20;;;20.50;52.10;;;;;;4942719;28;20063;-49
2022/05/27 12:51:56;;;;;;;6.78;3.10;;;20.60;52.40;;;;;;4940871;28;20414;-46
2022/05/27 12:55:01;;;;;;;8.63;3.28;;;20.70;52.80;;;;;;4945991;28;20055;-51
2022/05/27 13:00:57;;;;;;;8.43;3.10;;;20.80;50.40;;;;;;4944890;28;20070;-51
2022/05/27 13:03:50;;;;;;;6.85;2.90;;;20.90;48.50;;;;;;4945613;28;20423;-50
2022/05/27 13:06:42;;;;;;;8.13;3.15;;;20.80;49.20;;;;;;4947251;29;20411;-50
2022/05/27 13:09:30;;;;;;;8.68;2.92;;;20.80;48.10;;;;;;4944686;28;20058;-51
2022/05/27 13:11:57;;;;;;;10.20;2.72;;;20.70;47.80;;;;;;4944714;28;20530;-48
2022/05/27 13:14:41;;;;;;;7.85;2.53;;;20.70;48.80;;;;;;4927311;28;20066;-48
2022/05/27 13:17:22;;;;;;;3.85;2.05;;;20.60;48.30;;;;;;4930262;28;20522;-51
2022/05/27 13:19:54;;;;;;;9.45;2.50;;;20.50;47.60;;;;;;4931110;28;20062;-50
2022/05/27 13:22:33;;;;;;;8.32;2.15;;;20.50;47.50;;;;;;4934774;28;20063;-51
2022/05/27 13:25:17;;;;;;;6.35;2.15;;;20.40;48.60;;;;;;4941129;28;20058;-52
2022/05/27 13:27:45;;;;;;;7.90;2.20;;;20.40;50.00;;;;;;4945475;28;20390;-49
2022/05/27 13:30:16;;;;;;;6.65;2.30;;;20.40;48.60;;;;;;4943743;28;20070;-49
2022/05/27 13:33:00;;;;;;;6.60;2.38;;;20.50;47.80;;;;;;4945103;28;20503;-52
2022/05/27 13:35:37;;;;;;;7.78;2.53;;;20.60;47.20;;;;;;4942480;28;20086;-47
2022/05/27 13:38:09;;;;;;;8.60;2.72;;;20.60;47.00;;;;;;4939320;28;20522;-48
2022/05/27 13:40:38;;;;;;;7.43;2.13;;;20.80;47.40;;;;;;4944631;28;20063;-49
2022/05/27 13:43:09;;;;;;;8.43;2.45;;;20.80;46.40;;;;;;4933739;28;20491;-50